sensor_id;sensor_type;location;lat;lon;timestamp;P1;durP1;ratioP1;P2;durP2;ratioP2
10947;SDS011;5526;42.070;24.752;2023-07-08T00:02:10;9.93;;;9.02;;
10947;SDS011;5526;42.070;24.752;2023-07-08T00:04:39;9.90;;;9.10;;
10947;SDS011;5526;42.070;24.752;2023-07-08T00:07:08;10.02;;;9.20;;
10947;SDS011;5526;42.070;24.752;2023-07-08T00:09:38;9.07;;;8.32;;
10947;SDS011;5526;42.070;24.752;2023-07-08T00:12:08;9.35;;;8.68;;
10947;SDS011;5526;42.070;24.752;2023-07-08T00:14:37;9.80;;;9.10;;
10947;SDS011;5526;42.070;24.752;2023-07-08T00:17:08;10.32;;;9.43;;
10947;SDS011;5526;42.070;24.752;2023-07-08T00:19:39;10.23;;;9.38;;
10947;SDS011;5526;42.070;24.752;2023-07-08T00:22:12;9.55;;;8.75;;
10947;SDS011;5526;42.070;24.752;2023-07-08T00:24:41;9.63;;;8.70;;
10947;SDS011;5526;42.070;24.752;2023-07-08T00:27:10;10.32;;;9.43;;
10947;SDS011;5526;42.070;24.752;2023-07-08T00:29:38;9.40;;;8.65;;
10947;SDS011;5526;42.070;24.752;2023-07-08T00:32:12;10.48;;;9.48;;
10947;SDS011;5526;42.070;24.752;2023-07-08T00:34:42;10.48;;;9.68;;
10947;SDS011;5526;42.070;24.752;2023-07-08T00:37:10;10.18;;;9.45;;
10947;SDS011;5526;42.070;24.752;2023-07-08T00:39:38;9.63;;;8.82;;
10947;SDS011;5526;42.070;24.752;2023-07-08T00:42:10;9.70;;;8.50;;
10947;SDS011;5526;42.070;24.752;2023-07-08T00:44:42;9.40;;;8.60;;
10947;SDS011;5526;42.070;24.752;2023-07-08T00:47:11;10.40;;;9.40;;
10947;SDS011;5526;42.070;24.752;2023-07-08T00:49:42;10.98;;;9.98;;
10947;SDS011;5526;42.070;24.752;2023-07-08T00:52:18;9.35;;;8.45;;
10947;SDS011;5526;42.070;24.752;2023-07-08T00:54:51;10.20;;;9.07;;
10947;SDS011;5526;42.070;24.752;2023-07-08T00:57:19;10.55;;;9.65;;
10947;SDS011;5526;42.070;24.752;2023-07-08T00:59:50;9.88;;;9.02;;
10947;SDS011;5526;42.070;24.752;2023-07-08T01:02:23;10.45;;;9.45;;
10947;SDS011;5526;42.070;24.752;2023-07-08T01:04:54;10.43;;;9.55;;
10947;SDS011;5526;42.070;24.752;2023-07-08T01:07:25;10.80;;;10.00;;
10947;SDS011;5526;42.070;24.752;2023-07-08T01:09:54;10.20;;;9.40;;
10947;SDS011;5526;42.070;24.752;2023-07-08T01:12:25;10.77;;;9.88;;
10947;SDS011;5526;42.070;24.752;2023-07-08T01:14:53;10.00;;;9.27;;
10947;SDS011;5526;42.070;24.752;2023-07-08T01:17:21;9.25;;;8.57;;
10947;SDS011;5526;42.070;24.752;2023-07-08T01:19:50;9.95;;;9.15;;
10947;SDS011;5526;42.070;24.752;2023-07-08T01:22:22;9.90;;;9.10;;
10947;SDS011;5526;42.070;24.752;2023-07-08T01:24:49;9.65;;;8.95;;
10947;SDS011;5526;42.070;24.752;2023-07-08T01:27:17;9.05;;;8.40;;
10947;SDS011;5526;42.070;24.752;2023-07-08T01:29:45;9.85;;;9.07;;
10947;SDS011;5526;42.070;24.752;2023-07-08T01:32:13;9.30;;;8.55;;
10947;SDS011;5526;42.070;24.752;2023-07-08T01:34:43;9.32;;;8.60;;
10947;SDS011;5526;42.070;24.752;2023-07-08T01:37:28;8.98;;;8.38;;
10947;SDS011;5526;42.070;24.752;2023-07-08T01:40:12;9.65;;;8.75;;
10947;SDS011;5526;42.070;24.752;2023-07-08T01:42:40;9.85;;;9.07;;
10947;SDS011;5526;42.070;24.752;2023-07-08T01:45:10;10.02;;;9.05;;
10947;SDS011;5526;42.070;24.752;2023-07-08T01:47:38;9.02;;;8.23;;
10947;SDS011;5526;42.070;24.752;2023-07-08T01:50:06;9.93;;;9.07;;
10947;SDS011;5526;42.070;24.752;2023-07-08T01:52:37;9.15;;;8.45;;
10947;SDS011;5526;42.070;24.752;2023-07-08T01:55:05;9.35;;;8.60;;
10947;SDS011;5526;42.070;24.752;2023-07-08T01:57:32;9.35;;;8.55;;
10947;SDS011;5526;42.070;24.752;2023-07-08T01:59:59;9.43;;;8.73;;
10947;SDS011;5526;42.070;24.752;2023-07-08T02:02:26;10.02;;;9.23;;
10947;SDS011;5526;42.070;24.752;2023-07-08T02:04:54;9.57;;;8.80;;
10947;SDS011;5526;42.070;24.752;2023-07-08T02:07:21;11.05;;;9.23;;
10947;SDS011;5526;42.070;24.752;2023-07-08T02:09:49;10.13;;;9.32;;
10947;SDS011;5526;42.070;24.752;2023-07-08T02:12:16;10.27;;;9.30;;
10947;SDS011;5526;42.070;24.752;2023-07-08T02:14:43;10.60;;;9.68;;
10947;SDS011;5526;42.070;24.752;2023-07-08T02:17:10;10.73;;;9.85;;
10947;SDS011;5526;42.070;24.752;2023-07-08T02:19:42;10.93;;;10.00;;
10947;SDS011;5526;42.070;24.752;2023-07-08T02:22:09;10.77;;;9.77;;
10947;SDS011;5526;42.070;24.752;2023-07-08T02:24:36;10.93;;;9.85;;
10947;SDS011;5526;42.070;24.752;2023-07-08T02:27:05;12.18;;;11.18;;
10947;SDS011;5526;42.070;24.752;2023-07-08T02:29:32;12.10;;;11.10;;
10947;SDS011;5526;42.070;24.752;2023-07-08T02:31:59;12.10;;;11.07;;
10947;SDS011;5526;42.070;24.752;2023-07-08T02:34:26;12.60;;;11.40;;
10947;SDS011;5526;42.070;24.752;2023-07-08T02:36:53;12.13;;;11.15;;
10947;SDS011;5526;42.070;24.752;2023-07-08T02:39:21;12.65;;;11.52;;
10947;SDS011;5526;42.070;24.752;2023-07-08T02:41:48;12.50;;;11.48;;
10947;SDS011;5526;42.070;24.752;2023-07-08T02:44:17;12.13;;;11.23;;
10947;SDS011;5526;42.070;24.752;2023-07-08T02:46:44;13.20;;;12.00;;
10947;SDS011;5526;42.070;24.752;2023-07-08T02:49:11;13.15;;;12.05;;
10947;SDS011;5526;42.070;24.752;2023-07-08T02:51:38;14.25;;;13.13;;
10947;SDS011;5526;42.070;24.752;2023-07-08T02:54:05;14.23;;;13.13;;
10947;SDS011;5526;42.070;24.752;2023-07-08T02:56:32;13.75;;;12.63;;
10947;SDS011;5526;42.070;24.752;2023-07-08T02:58:59;14.43;;;13.23;;
10947;SDS011;5526;42.070;24.752;2023-07-08T03:01:27;13.88;;;12.57;;
10947;SDS011;5526;42.070;24.752;2023-07-08T03:03:54;14.05;;;12.85;;
10947;SDS011;5526;42.070;24.752;2023-07-08T03:06:23;14.20;;;13.20;;
10947;SDS011;5526;42.070;24.752;2023-07-08T03:08:50;15.23;;;14.05;;
10947;SDS011;5526;42.070;24.752;2023-07-08T03:11:17;15.27;;;14.02;;
10947;SDS011;5526;42.070;24.752;2023-07-08T03:13:44;14.70;;;13.52;;
10947;SDS011;5526;42.070;24.752;2023-07-08T03:16:11;14.80;;;13.70;;
10947;SDS011;5526;42.070;24.752;2023-07-08T03:18:40;15.32;;;14.05;;
10947;SDS011;5526;42.070;24.752;2023-07-08T03:21:12;15.32;;;14.02;;
10947;SDS011;5526;42.070;24.752;2023-07-08T03:23:40;14.65;;;13.55;;
10947;SDS011;5526;42.070;24.752;2023-07-08T03:26:08;14.60;;;13.50;;
10947;SDS011;5526;42.070;24.752;2023-07-08T03:28:40;14.85;;;13.65;;
10947;SDS011;5526;42.070;24.752;2023-07-08T03:31:08;14.48;;;13.25;;
10947;SDS011;5526;42.070;24.752;2023-07-08T03:33:36;15.23;;;14.02;;
10947;SDS011;5526;42.070;24.752;2023-07-08T03:36:09;14.93;;;13.82;;
10947;SDS011;5526;42.070;24.752;2023-07-08T03:38:38;14.55;;;13.45;;
10947;SDS011;5526;42.070;24.752;2023-07-08T03:41:05;15.75;;;14.55;;
10947;SDS011;5526;42.070;24.752;2023-07-08T03:43:32;15.77;;;14.48;;
10947;SDS011;5526;42.070;24.752;2023-07-08T03:45:59;15.95;;;14.63;;
10947;SDS011;5526;42.070;24.752;2023-07-08T03:48:26;15.82;;;14.63;;
10947;SDS011;5526;42.070;24.752;2023-07-08T03:50:54;15.60;;;14.45;;
10947;SDS011;5526;42.070;24.752;2023-07-08T03:53:22;14.85;;;13.75;;
10947;SDS011;5526;42.070;24.752;2023-07-08T03:55:49;15.73;;;14.48;;
10947;SDS011;5526;42.070;24.752;2023-07-08T03:58:16;15.52;;;14.32;;
10947;SDS011;5526;42.070;24.752;2023-07-08T04:00:43;14.77;;;13.55;;
10947;SDS011;5526;42.070;24.752;2023-07-08T04:03:11;15.00;;;13.90;;
10947;SDS011;5526;42.070;24.752;2023-07-08T04:05:38;15.80;;;14.60;;
10947;SDS011;5526;42.070;24.752;2023-07-08T04:08:05;14.50;;;13.48;;
10947;SDS011;5526;42.070;24.752;2023-07-08T04:10:33;15.85;;;14.48;;
10947;SDS011;5526;42.070;24.752;2023-07-08T04:13:00;15.60;;;14.50;;
10947;SDS011;5526;42.070;24.752;2023-07-08T04:15:27;15.20;;;14.00;;
10947;SDS011;5526;42.070;24.752;2023-07-08T04:17:54;16.20;;;15.00;;
10947;SDS011;5526;42.070;24.752;2023-07-08T04:20:22;16.25;;;14.90;;
10947;SDS011;5526;42.070;24.752;2023-07-08T04:22:49;15.32;;;14.15;;
10947;SDS011;5526;42.070;24.752;2023-07-08T04:25:17;15.05;;;13.85;;
10947;SDS011;5526;42.070;24.752;2023-07-08T04:27:46;14.95;;;13.85;;
10947;SDS011;5526;42.070;24.752;2023-07-08T04:30:17;15.05;;;13.75;;
10947;SDS011;5526;42.070;24.752;2023-07-08T04:32:49;15.75;;;14.45;;
10947;SDS011;5526;42.070;24.752;2023-07-08T04:35:16;14.45;;;13.45;;
10947;SDS011;5526;42.070;24.752;2023-07-08T04:37:44;14.70;;;13.50;;
10947;SDS011;5526;42.070;24.752;2023-07-08T04:40:14;16.20;;;14.90;;
10947;SDS011;5526;42.070;24.752;2023-07-08T04:42:46;15.90;;;14.60;;
10947;SDS011;5526;42.070;24.752;2023-07-08T04:45:15;16.25;;;14.95;;
10947;SDS011;5526;42.070;24.752;2023-07-08T04:47:43;16.15;;;14.90;;
10947;SDS011;5526;42.070;24.752;2023-07-08T04:50:17;15.27;;;14.18;;
10947;SDS011;5526;42.070;24.752;2023-07-08T04:52:45;15.65;;;14.35;;
10947;SDS011;5526;42.070;24.752;2023-07-08T04:55:12;15.80;;;14.30;;
10947;SDS011;5526;42.070;24.752;2023-07-08T04:57:40;14.75;;;13.48;;
10947;SDS011;5526;42.070;24.752;2023-07-08T05:00:09;15.23;;;14.00;;
10947;SDS011;5526;42.070;24.752;2023-07-08T05:02:42;14.82;;;13.73;;
10947;SDS011;5526;42.070;24.752;2023-07-08T05:05:09;14.30;;;13.20;;
10947;SDS011;5526;42.070;24.752;2023-07-08T05:07:36;14.65;;;13.35;;
10947;SDS011;5526;42.070;24.752;2023-07-08T05:10:04;14.77;;;13.75;;
10947;SDS011;5526;42.070;24.752;2023-07-08T05:12:31;14.07;;;12.88;;
10947;SDS011;5526;42.070;24.752;2023-07-08T05:14:58;15.10;;;13.93;;
10947;SDS011;5526;42.070;24.752;2023-07-08T05:17:28;13.60;;;12.40;;
10947;SDS011;5526;42.070;24.752;2023-07-08T05:19:55;13.23;;;12.23;;
10947;SDS011;5526;42.070;24.752;2023-07-08T05:22:23;14.27;;;13.18;;
10947;SDS011;5526;42.070;24.752;2023-07-08T05:24:51;13.77;;;12.68;;
10947;SDS011;5526;42.070;24.752;2023-07-08T05:27:20;13.50;;;12.48;;
10947;SDS011;5526;42.070;24.752;2023-07-08T05:29:48;14.15;;;13.05;;
10947;SDS011;5526;42.070;24.752;2023-07-08T05:32:16;13.00;;;12.10;;
10947;SDS011;5526;42.070;24.752;2023-07-08T05:34:45;12.23;;;11.32;;
10947;SDS011;5526;42.070;24.752;2023-07-08T05:37:12;13.05;;;12.00;;
10947;SDS011;5526;42.070;24.752;2023-07-08T05:39:40;12.80;;;11.90;;
10947;SDS011;5526;42.070;24.752;2023-07-08T05:42:07;11.75;;;10.80;;
10947;SDS011;5526;42.070;24.752;2023-07-08T05:44:34;11.95;;;11.18;;
10947;SDS011;5526;42.070;24.752;2023-07-08T05:47:01;10.70;;;9.82;;
10947;SDS011;5526;42.070;24.752;2023-07-08T05:49:29;10.52;;;9.73;;
10947;SDS011;5526;42.070;24.752;2023-07-08T05:51:58;10.95;;;10.05;;
10947;SDS011;5526;42.070;24.752;2023-07-08T05:54:31;10.50;;;9.70;;
10947;SDS011;5526;42.070;24.752;2023-07-08T05:56:58;10.68;;;9.98;;
10947;SDS011;5526;42.070;24.752;2023-07-08T05:59:25;10.65;;;9.85;;
10947;SDS011;5526;42.070;24.752;2023-07-08T06:01:52;10.75;;;10.05;;
10947;SDS011;5526;42.070;24.752;2023-07-08T06:04:19;9.88;;;9.13;;
10947;SDS011;5526;42.070;24.752;2023-07-08T06:06:47;10.70;;;9.90;;
10947;SDS011;5526;42.070;24.752;2023-07-08T06:09:16;9.88;;;9.18;;
10947;SDS011;5526;42.070;24.752;2023-07-08T06:11:43;10.15;;;9.45;;
10947;SDS011;5526;42.070;24.752;2023-07-08T06:14:10;11.40;;;10.50;;
10947;SDS011;5526;42.070;24.752;2023-07-08T06:16:37;9.93;;;9.23;;
10947;SDS011;5526;42.070;24.752;2023-07-08T06:19:04;9.93;;;9.10;;
10947;SDS011;5526;42.070;24.752;2023-07-08T06:21:32;8.98;;;8.38;;
10947;SDS011;5526;42.070;24.752;2023-07-08T06:23:59;9.07;;;8.38;;
10947;SDS011;5526;42.070;24.752;2023-07-08T06:26:27;9.50;;;8.70;;
10947;SDS011;5526;42.070;24.752;2023-07-08T06:28:55;8.57;;;7.88;;
10947;SDS011;5526;42.070;24.752;2023-07-08T06:31:22;9.00;;;8.30;;
10947;SDS011;5526;42.070;24.752;2023-07-08T06:33:49;9.10;;;8.50;;
10947;SDS011;5526;42.070;24.752;2023-07-08T06:36:16;9.35;;;8.45;;
10947;SDS011;5526;42.070;24.752;2023-07-08T06:38:43;10.00;;;9.30;;
10947;SDS011;5526;42.070;24.752;2023-07-08T06:41:10;9.45;;;8.70;;
10947;SDS011;5526;42.070;24.752;2023-07-08T06:43:39;9.75;;;8.95;;
10947;SDS011;5526;42.070;24.752;2023-07-08T06:46:06;9.52;;;8.82;;
10947;SDS011;5526;42.070;24.752;2023-07-08T06:48:33;9.35;;;8.55;;
10947;SDS011;5526;42.070;24.752;2023-07-08T06:51:00;8.95;;;8.20;;
10947;SDS011;5526;42.070;24.752;2023-07-08T06:53:27;10.23;;;9.43;;
10947;SDS011;5526;42.070;24.752;2023-07-08T06:55:54;9.40;;;8.63;;
10947;SDS011;5526;42.070;24.752;2023-07-08T06:58:22;8.25;;;7.63;;
10947;SDS011;5526;42.070;24.752;2023-07-08T07:00:50;8.10;;;7.50;;
10947;SDS011;5526;42.070;24.752;2023-07-08T07:03:17;7.53;;;7.03;;
10947;SDS011;5526;42.070;24.752;2023-07-08T07:05:44;7.07;;;6.45;;
10947;SDS011;5526;42.070;24.752;2023-07-08T07:08:12;7.35;;;6.75;;
10947;SDS011;5526;42.070;24.752;2023-07-08T07:10:39;7.18;;;5.88;;
10947;SDS011;5526;42.070;24.752;2023-07-08T07:13:06;7.30;;;6.60;;
10947;SDS011;5526;42.070;24.752;2023-07-08T07:15:33;7.05;;;6.28;;
10947;SDS011;5526;42.070;24.752;2023-07-08T07:18:02;6.97;;;6.35;;
10947;SDS011;5526;42.070;24.752;2023-07-08T07:20:30;7.47;;;6.78;;
10947;SDS011;5526;42.070;24.752;2023-07-08T07:22:58;6.95;;;6.45;;
10947;SDS011;5526;42.070;24.752;2023-07-08T07:25:26;6.53;;;5.82;;
10947;SDS011;5526;42.070;24.752;2023-07-08T07:27:53;5.95;;;5.55;;
10947;SDS011;5526;42.070;24.752;2023-07-08T07:30:20;5.95;;;5.20;;
10947;SDS011;5526;42.070;24.752;2023-07-08T07:32:47;5.25;;;4.93;;
10947;SDS011;5526;42.070;24.752;2023-07-08T07:35:16;5.55;;;5.10;;
10947;SDS011;5526;42.070;24.752;2023-07-08T07:37:43;5.65;;;5.20;;
10947;SDS011;5526;42.070;24.752;2023-07-08T07:40:11;6.22;;;5.70;;
10947;SDS011;5526;42.070;24.752;2023-07-08T07:42:41;6.30;;;5.90;;
10947;SDS011;5526;42.070;24.752;2023-07-08T07:45:09;6.47;;;5.80;;
10947;SDS011;5526;42.070;24.752;2023-07-08T07:47:36;5.47;;;5.13;;
10947;SDS011;5526;42.070;24.752;2023-07-08T07:50:05;5.50;;;5.10;;
10947;SDS011;5526;42.070;24.752;2023-07-08T07:52:35;6.20;;;5.70;;
10947;SDS011;5526;42.070;24.752;2023-07-08T07:55:03;6.55;;;6.05;;
10947;SDS011;5526;42.070;24.752;2023-07-08T07:57:31;6.78;;;6.18;;
10947;SDS011;5526;42.070;24.752;2023-07-08T07:59:58;6.63;;;5.65;;
10947;SDS011;5526;42.070;24.752;2023-07-08T08:02:25;6.70;;;6.20;;
10947;SDS011;5526;42.070;24.752;2023-07-08T08:04:52;6.55;;;6.15;;
10947;SDS011;5526;42.070;24.752;2023-07-08T08:07:20;6.55;;;6.15;;
10947;SDS011;5526;42.070;24.752;2023-07-08T08:09:48;6.60;;;5.95;;
10947;SDS011;5526;42.070;24.752;2023-07-08T08:12:15;5.55;;;5.15;;
10947;SDS011;5526;42.070;24.752;2023-07-08T08:14:43;5.47;;;5.07;;
10947;SDS011;5526;42.070;24.752;2023-07-08T08:17:10;5.40;;;4.93;;
10947;SDS011;5526;42.070;24.752;2023-07-08T08:19:37;4.97;;;4.68;;
10947;SDS011;5526;42.070;24.752;2023-07-08T08:22:04;5.85;;;5.45;;
10947;SDS011;5526;42.070;24.752;2023-07-08T08:24:31;5.32;;;4.90;;
10947;SDS011;5526;42.070;24.752;2023-07-08T08:27:00;5.28;;;4.88;;
10947;SDS011;5526;42.070;24.752;2023-07-08T08:29:27;5.75;;;5.35;;
10947;SDS011;5526;42.070;24.752;2023-07-08T08:31:54;5.90;;;5.03;;
10947;SDS011;5526;42.070;24.752;2023-07-08T08:34:22;5.60;;;5.20;;
10947;SDS011;5526;42.070;24.752;2023-07-08T08:36:49;4.75;;;4.45;;
10947;SDS011;5526;42.070;24.752;2023-07-08T08:39:16;4.70;;;4.30;;
10947;SDS011;5526;42.070;24.752;2023-07-08T08:41:43;4.97;;;4.63;;
10947;SDS011;5526;42.070;24.752;2023-07-08T08:44:12;5.20;;;4.75;;
10947;SDS011;5526;42.070;24.752;2023-07-08T08:46:45;4.60;;;4.30;;
10947;SDS011;5526;42.070;24.752;2023-07-08T08:49:21;5.00;;;4.60;;
10947;SDS011;5526;42.070;24.752;2023-07-08T08:51:53;5.47;;;4.68;;
10947;SDS011;5526;42.070;24.752;2023-07-08T08:54:20;4.90;;;4.50;;
10947;SDS011;5526;42.070;24.752;2023-07-08T08:56:49;5.40;;;5.00;;
10947;SDS011;5526;42.070;24.752;2023-07-08T08:59:30;5.00;;;4.70;;
10947;SDS011;5526;42.070;24.752;2023-07-08T09:02:07;4.82;;;4.45;;
10947;SDS011;5526;42.070;24.752;2023-07-08T09:04:50;4.78;;;4.38;;
10947;SDS011;5526;42.070;24.752;2023-07-08T09:07:17;4.85;;;4.45;;
10947;SDS011;5526;42.070;24.752;2023-07-08T09:09:47;5.95;;;5.45;;
10947;SDS011;5526;42.070;24.752;2023-07-08T09:12:20;5.32;;;4.90;;
10947;SDS011;5526;42.070;24.752;2023-07-08T09:14:52;5.00;;;4.70;;
10947;SDS011;5526;42.070;24.752;2023-07-08T09:17:20;4.90;;;4.50;;
10947;SDS011;5526;42.070;24.752;2023-07-08T09:19:52;4.85;;;4.28;;
10947;SDS011;5526;42.070;24.752;2023-07-08T09:22:28;4.90;;;4.50;;
10947;SDS011;5526;42.070;24.752;2023-07-08T09:25:02;5.13;;;4.60;;
10947;SDS011;5526;42.070;24.752;2023-07-08T09:27:34;5.05;;;4.68;;
10947;SDS011;5526;42.070;24.752;2023-07-08T09:30:02;5.72;;;5.22;;
10947;SDS011;5526;42.070;24.752;2023-07-08T09:32:30;5.57;;;5.07;;
10947;SDS011;5526;42.070;24.752;2023-07-08T09:35:02;5.25;;;4.80;;
10947;SDS011;5526;42.070;24.752;2023-07-08T09:37:32;5.28;;;4.88;;
10947;SDS011;5526;42.070;24.752;2023-07-08T09:40:03;5.60;;;5.10;;
10947;SDS011;5526;42.070;24.752;2023-07-08T09:42:38;5.28;;;4.70;;
10947;SDS011;5526;42.070;24.752;2023-07-08T09:45:12;5.25;;;4.85;;
10947;SDS011;5526;42.070;24.752;2023-07-08T09:47:42;5.28;;;4.78;;
10947;SDS011;5526;42.070;24.752;2023-07-08T09:50:15;5.80;;;5.00;;
10947;SDS011;5526;42.070;24.752;2023-07-08T09:52:45;4.97;;;4.57;;
10947;SDS011;5526;42.070;24.752;2023-07-08T09:55:13;4.90;;;4.53;;
10947;SDS011;5526;42.070;24.752;2023-07-08T09:57:40;4.70;;;4.40;;
10947;SDS011;5526;42.070;24.752;2023-07-08T10:00:14;4.90;;;4.50;;
10947;SDS011;5526;42.070;24.752;2023-07-08T10:02:43;4.82;;;4.53;;
10947;SDS011;5526;42.070;24.752;2023-07-08T10:05:14;4.50;;;4.20;;
10947;SDS011;5526;42.070;24.752;2023-07-08T10:07:44;5.03;;;4.72;;
10947;SDS011;5526;42.070;24.752;2023-07-08T10:10:12;5.45;;;5.05;;
10947;SDS011;5526;42.070;24.752;2023-07-08T10:12:42;6.13;;;5.55;;
10947;SDS011;5526;42.070;24.752;2023-07-08T10:15:22;6.97;;;5.80;;
10947;SDS011;5526;42.070;24.752;2023-07-08T10:17:54;5.20;;;4.70;;
10947;SDS011;5526;42.070;24.752;2023-07-08T10:20:22;4.60;;;4.30;;
10947;SDS011;5526;42.070;24.752;2023-07-08T10:22:56;5.20;;;4.80;;
10947;SDS011;5526;42.070;24.752;2023-07-08T10:25:37;4.68;;;4.38;;
10947;SDS011;5526;42.070;24.752;2023-07-08T10:28:19;4.60;;;4.30;;
10947;SDS011;5526;42.070;24.752;2023-07-08T10:30:55;4.40;;;4.10;;
10947;SDS011;5526;42.070;24.752;2023-07-08T10:33:37;4.38;;;4.15;;
10947;SDS011;5526;42.070;24.752;2023-07-08T10:36:23;4.85;;;4.43;;
10947;SDS011;5526;42.070;24.752;2023-07-08T10:39:02;5.45;;;4.95;;
10947;SDS011;5526;42.070;24.752;2023-07-08T10:41:51;5.53;;;5.00;;
10947;SDS011;5526;42.070;24.752;2023-07-08T10:44:28;4.80;;;4.50;;
10947;SDS011;5526;42.070;24.752;2023-07-08T10:47:06;4.60;;;4.18;;
10947;SDS011;5526;42.070;24.752;2023-07-08T10:49:48;4.30;;;4.00;;
10947;SDS011;5526;42.070;24.752;2023-07-08T10:52:37;4.10;;;3.78;;
10947;SDS011;5526;42.070;24.752;2023-07-08T10:55:17;4.68;;;4.28;;
10947;SDS011;5526;42.070;24.752;2023-07-08T11:00:55;4.75;;;4.45;;
10947;SDS011;5526;42.070;24.752;2023-07-08T11:03:39;4.43;;;4.13;;
10947;SDS011;5526;42.070;24.752;2023-07-08T11:06:24;5.07;;;4.40;;
10947;SDS011;5526;42.070;24.752;2023-07-08T11:09:02;4.60;;;4.30;;
10947;SDS011;5526;42.070;24.752;2023-07-08T11:11:33;4.40;;;4.07;;
10947;SDS011;5526;42.070;24.752;2023-07-08T11:14:05;4.60;;;4.30;;
10947;SDS011;5526;42.070;24.752;2023-07-08T11:16:40;4.40;;;4.07;;
10947;SDS011;5526;42.070;24.752;2023-07-08T11:19:16;5.40;;;4.15;;
10947;SDS011;5526;42.070;24.752;2023-07-08T11:21:48;4.15;;;3.85;;
10947;SDS011;5526;42.070;24.752;2023-07-08T11:24:21;4.55;;;4.25;;
10947;SDS011;5526;42.070;24.752;2023-07-08T11:26:56;4.55;;;4.25;;
10947;SDS011;5526;42.070;24.752;2023-07-08T11:29:30;4.50;;;4.20;;
10947;SDS011;5526;42.070;24.752;2023-07-08T11:32:10;4.60;;;4.20;;
10947;SDS011;5526;42.070;24.752;2023-07-08T11:34:43;4.22;;;3.92;;
10947;SDS011;5526;42.070;24.752;2023-07-08T11:37:13;4.20;;;3.90;;
10947;SDS011;5526;42.070;24.752;2023-07-08T11:39:41;4.88;;;4.47;;
10947;SDS011;5526;42.070;24.752;2023-07-08T11:42:15;4.93;;;4.68;;
10947;SDS011;5526;42.070;24.752;2023-07-08T11:44:47;4.40;;;4.20;;
10947;SDS011;5526;42.070;24.752;2023-07-08T11:47:18;4.90;;;4.55;;
10947;SDS011;5526;42.070;24.752;2023-07-08T11:49:52;4.95;;;4.53;;
10947;SDS011;5526;42.070;24.752;2023-07-08T11:52:20;5.00;;;4.53;;
10947;SDS011;5526;42.070;24.752;2023-07-08T11:54:55;4.80;;;4.50;;
10947;SDS011;5526;42.070;24.752;2023-07-08T11:57:24;4.93;;;4.63;;
10947;SDS011;5526;42.070;24.752;2023-07-08T12:00:11;4.57;;;4.18;;
10947;SDS011;5526;42.070;24.752;2023-07-08T12:02:50;5.63;;;3.92;;
10947;SDS011;5526;42.070;24.752;2023-07-08T12:05:35;4.22;;;3.90;;
10947;SDS011;5526;42.070;24.752;2023-07-08T12:08:12;4.30;;;4.00;;
10947;SDS011;5526;42.070;24.752;2023-07-08T12:10:45;4.38;;;4.18;;
10947;SDS011;5526;42.070;24.752;2023-07-08T12:13:16;4.60;;;4.30;;
10947;SDS011;5526;42.070;24.752;2023-07-08T12:15:44;4.25;;;3.90;;
10947;SDS011;5526;42.070;24.752;2023-07-08T12:18:13;4.20;;;4.00;;
10947;SDS011;5526;42.070;24.752;2023-07-08T12:20:45;3.83;;;3.53;;
10947;SDS011;5526;42.070;24.752;2023-07-08T12:23:14;4.03;;;3.72;;
10947;SDS011;5526;42.070;24.752;2023-07-08T12:25:44;4.28;;;3.97;;
10947;SDS011;5526;42.070;24.752;2023-07-08T12:28:11;4.85;;;4.55;;
10947;SDS011;5526;42.070;24.752;2023-07-08T12:30:39;4.35;;;4.10;;
10947;SDS011;5526;42.070;24.752;2023-07-08T12:33:10;4.05;;;3.83;;
10947;SDS011;5526;42.070;24.752;2023-07-08T12:35:40;4.03;;;3.72;;
10947;SDS011;5526;42.070;24.752;2023-07-08T12:38:13;4.38;;;3.95;;
10947;SDS011;5526;42.070;24.752;2023-07-08T12:40:49;4.93;;;4.53;;
10947;SDS011;5526;42.070;24.752;2023-07-08T12:43:17;4.35;;;4.07;;
10947;SDS011;5526;42.070;24.752;2023-07-08T12:45:44;4.95;;;4.55;;
10947;SDS011;5526;42.070;24.752;2023-07-08T12:48:11;4.18;;;3.88;;
10947;SDS011;5526;42.070;24.752;2023-07-08T12:50:39;3.88;;;3.60;;
10947;SDS011;5526;42.070;24.752;2023-07-08T12:53:06;4.07;;;3.78;;
10947;SDS011;5526;42.070;24.752;2023-07-08T12:55:37;6.68;;;4.13;;
10947;SDS011;5526;42.070;24.752;2023-07-08T12:58:05;3.70;;;3.50;;
10947;SDS011;5526;42.070;24.752;2023-07-08T13:00:37;4.07;;;3.67;;
10947;SDS011;5526;42.070;24.752;2023-07-08T13:03:07;4.32;;;4.03;;
10947;SDS011;5526;42.070;24.752;2023-07-08T13:05:49;4.40;;;4.10;;
10947;SDS011;5526;42.070;24.752;2023-07-08T13:08:20;3.85;;;3.63;;
10947;SDS011;5526;42.070;24.752;2023-07-08T13:10:50;4.28;;;4.07;;
10947;SDS011;5526;42.070;24.752;2023-07-08T13:13:20;3.42;;;3.13;;
10947;SDS011;5526;42.070;24.752;2023-07-08T13:15:50;3.08;;;2.88;;
10947;SDS011;5526;42.070;24.752;2023-07-08T13:18:18;2.80;;;2.70;;
10947;SDS011;5526;42.070;24.752;2023-07-08T13:20:48;3.42;;;3.13;;
10947;SDS011;5526;42.070;24.752;2023-07-08T13:23:18;3.22;;;2.85;;
10947;SDS011;5526;42.070;24.752;2023-07-08T13:25:47;3.00;;;2.80;;
10947;SDS011;5526;42.070;24.752;2023-07-08T13:28:18;2.92;;;2.72;;
10947;SDS011;5526;42.070;24.752;2023-07-08T13:30:49;2.97;;;2.85;;
10947;SDS011;5526;42.070;24.752;2023-07-08T13:33:18;3.63;;;3.00;;
10947;SDS011;5526;42.070;24.752;2023-07-08T13:35:45;3.10;;;2.83;;
10947;SDS011;5526;42.070;24.752;2023-07-08T13:38:14;5.18;;;2.80;;
10947;SDS011;5526;42.070;24.752;2023-07-08T13:40:44;3.15;;;2.92;;
10947;SDS011;5526;42.070;24.752;2023-07-08T13:43:13;3.72;;;3.47;;
10947;SDS011;5526;42.070;24.752;2023-07-08T13:45:45;7.10;;;5.10;;
10947;SDS011;5526;42.070;24.752;2023-07-08T13:48:14;6.13;;;5.50;;
10947;SDS011;5526;42.070;24.752;2023-07-08T13:50:48;5.53;;;4.60;;
10947;SDS011;5526;42.070;24.752;2023-07-08T13:53:21;4.60;;;4.25;;
10947;SDS011;5526;42.070;24.752;2023-07-08T13:55:56;5.40;;;4.90;;
10947;SDS011;5526;42.070;24.752;2023-07-08T13:58:27;5.25;;;4.85;;
10947;SDS011;5526;42.070;24.752;2023-07-08T14:00:57;4.38;;;4.05;;
10947;SDS011;5526;42.070;24.752;2023-07-08T14:03:24;4.15;;;3.90;;
10947;SDS011;5526;42.070;24.752;2023-07-08T14:05:51;4.70;;;4.40;;
10947;SDS011;5526;42.070;24.752;2023-07-08T14:08:19;5.20;;;4.50;;
10947;SDS011;5526;42.070;24.752;2023-07-08T14:10:47;5.10;;;4.60;;
10947;SDS011;5526;42.070;24.752;2023-07-08T14:13:15;4.75;;;4.30;;
10947;SDS011;5526;42.070;24.752;2023-07-08T14:15:43;3.92;;;3.70;;
10947;SDS011;5526;42.070;24.752;2023-07-08T14:18:13;4.22;;;3.92;;
10947;SDS011;5526;42.070;24.752;2023-07-08T14:20:40;4.07;;;3.78;;
10947;SDS011;5526;42.070;24.752;2023-07-08T14:23:08;4.93;;;3.90;;
10947;SDS011;5526;42.070;24.752;2023-07-08T14:25:38;3.97;;;3.60;;
10947;SDS011;5526;42.070;24.752;2023-07-08T14:28:06;3.05;;;2.88;;
10947;SDS011;5526;42.070;24.752;2023-07-08T14:30:33;3.70;;;3.40;;
10947;SDS011;5526;42.070;24.752;2023-07-08T14:33:05;3.83;;;3.40;;
10947;SDS011;5526;42.070;24.752;2023-07-08T14:35:33;3.33;;;3.13;;
10947;SDS011;5526;42.070;24.752;2023-07-08T14:38:00;3.40;;;3.13;;
10947;SDS011;5526;42.070;24.752;2023-07-08T14:40:31;4.40;;;3.22;;
10947;SDS011;5526;42.070;24.752;2023-07-08T14:43:02;3.20;;;2.97;;
10947;SDS011;5526;42.070;24.752;2023-07-08T14:45:33;3.38;;;3.17;;
10947;SDS011;5526;42.070;24.752;2023-07-08T14:48:07;3.20;;;2.90;;
10947;SDS011;5526;42.070;24.752;2023-07-08T14:50:37;2.83;;;2.63;;
10947;SDS011;5526;42.070;24.752;2023-07-08T14:53:05;3.70;;;3.40;;
10947;SDS011;5526;42.070;24.752;2023-07-08T14:55:32;3.83;;;3.53;;
10947;SDS011;5526;42.070;24.752;2023-07-08T14:57:59;3.83;;;3.53;;
10947;SDS011;5526;42.070;24.752;2023-07-08T15:00:28;3.33;;;3.03;;